Nova Redencao, Brazil
Current Conditions -  °F | °C
As of 12:00 PM on Wednesday 22 Oct 2014 (Local Time) from SBQV Reporting Station
Broken Clouds Broken Clouds  
Wind Chill: 24°   Ceiling: 1800
Heat Index: 24°   Visibility: 6mi
Dew Point: 17°   Wind: 9mph
Humidity: 65%   Direction: 90°E
Pressure: 30.15"   Gusts: NA
Location:  12.82°S, 41.07°W
Report Text: SBQV 221500Z 09008KT 9999 BKN018 24/17 Q1021
Loading
Personal Weather Stations






























Interactive Weather Map
Tropical Storm Tracking
New forecast layout! Learn more

10-Day Weather Forecast

Advertisements
Track Severe Weather on mobile